S. LLORENÇ del MUNT i l'OBAC -La Mata (Bages)





Hora UTC 08:50
Temperatura 6.3 ºC
Humitat 96.3 %
Pressió 1004.0 hPa
Pluja 0.4 mm
Velocitat vent 3.8 km/h
Direcció vent W
Radiació solar 13.6 W/m²
Fuel 450.2 %

Dades diàries 2022-12-10



Hora UTC (hivern +1h; estiu +2h)
Temperatura (ºC) Humitat (%) Pressió (hPa) Velocitat vent (km/h) Precipitació (mm) Fuel (%) Radiació solar (W/m²)
Hora UTC Aire Humitat Pressió Vel. Dir. Vel. Max Dir. Intent. màx 5 min. Fuel Rad. Sol.
00:05 7.3 94.6 1001.1 4.7 N 4.7 N 0.0 417.6 0.1
00:10 7.2 94.4 1001.1 5.7 N 9.2 NNW 0.1 417.1 0.1
00:15 7.2 94.5 1001.1 4.3 N 8.8 N 0.0 416.4 0.1
00:20 7.2 94.5 1001.0 4.4 N 7.4 N 0.0 416.3 0.1
00:25 7.2 94.4 1001.0 4.3 N 7.4 N 0.0 416.4 0.1
00:30 7.2 94.4 1000.9 3.6 N 6.4 N 0.0 416.8 0.1
00:35 7.2 94.5 1001.0 3.2 N 7.4 N 0.0 417.3 0.1
00:40 7.1 94.5 1001.0 3.3 N 5.3 N 0.0 417.4 0.1
00:45 7.1 94.5 1001.0 4.0 NNE 7.4 N 0.0 417.4 0.2
00:50 7.1 94.5 1001.0 4.3 NNE 8.1 NNE 0.0 417.3 0.1
00:55 7.0 94.4 1001.0 4.9 NNE 8.1 NNE 0.0 417.3 0.1
01:00 6.9 94.4 1001.0 2.9 N 4.6 N 0.0 417.2 0.1
01:05 6.9 94.3 1001.0 3.7 N 6.4 N 0.0 417.0 0.1
01:10 6.9 94.4 1000.9 3.5 N 7.8 NNE 0.0 417.0 0.1
01:15 7.0 94.4 1000.9 3.2 N 9.5 N 0.0 416.9 0.1
01:20 7.0 94.4 1001.0 2.9 N 7.8 NNE 0.0 416.9 0.1
01:25 7.0 94.4 1001.0 4.3 N 8.1 N 0.0 416.8 0.1
01:30 7.1 94.4 1001.0 5.0 N 10.6 N 0.0 416.8 0.1
01:35 7.1 94.4 1001.1 4.5 N 9.2 N 0.0 416.9 0.1
01:40 7.0 94.3 1001.2 4.5 N 9.9 N 0.0 416.8 0.1
01:45 6.9 94.3 1001.1 4.2 N 8.8 NNW 0.0 416.5 0.1
01:50 6.9 94.4 1001.2 5.3 N 10.2 NNW 0.0 416.5 0.1
01:55 6.9 94.4 1001.2 4.8 N 9.5 NNW 0.0 416.7 0.1
02:00 6.9 94.5 1001.3 5.2 N 10.6 N 0.0 416.8 0.1
02:05 6.9 94.5 1001.3 4.4 N 9.2 NNE 0.0 416.8 0.1
02:10 6.9 94.6 1001.3 5.1 N 9.9 N 0.0 417.0 0.1
02:15 7.0 94.6 1001.4 5.2 N 10.6 NNW 0.0 417.3 0.1
02:20 7.0 94.6 1001.4 5.1 N 9.9 N 0.0 417.7 0.1
02:25 6.9 94.6 1001.4 4.5 N 8.8 N 0.0 418.2 0.1
02:30 6.9 94.5 1001.4 3.6 N 6.7 N 0.0 418.5 0.1
02:35 6.8 94.5 1001.4 3.6 NNE 8.1 NNE 0.0 418.6 0.1
02:40 6.7 94.5 1001.5 3.2 NNE 6.7 NNE 0.0 418.6 0.1
02:45 6.7 94.5 1001.5 3.1 N 5.3 NNE 0.0 418.6 0.1
02:50 6.6 94.6 1001.5 2.7 N 6.7 NNE 0.0 418.5 0.1
02:55 6.6 94.6 1001.5 2.9 NNE 5.6 NE 0.0 418.6 0.1
03:00 6.6 94.6 1001.5 3.6 NNE 6.7 NNE 0.0 418.6 0.1
03:05 6.7 94.6 1001.5 3.6 NNE 6.4 NE 0.0 418.6 0.1
03:10 6.7 94.6 1001.6 4.1 NNE 6.4 NNE 0.0 418.5 0.1
03:15 6.8 94.5 1001.6 4.6 NNE 7.1 NE 0.0 418.1 0.1
03:20 6.8 94.3 1001.6 4.6 NNE 7.1 NNE 0.0 417.7 0.1
03:25 6.8 94.1 1001.6 3.5 NNE 5.3 NNE 0.0 417.2 0.1
03:30 6.8 93.9 1001.6 3.0 N 6.0 NNE 0.0 416.6 0.1
03:35 6.8 93.7 1001.6 4.0 N 6.7 N 0.0 416.1 0.1
03:40 6.9 93.4 1001.6 4.7 N 6.4 N 0.0 415.5 0.1
03:45 7.0 93.1 1001.6 5.4 N 7.4 N 0.0 414.9 0.1
03:50 7.0 92.8 1001.6 3.8 NNW 6.4 N 0.0 414.5 0.1
03:55 7.1 92.5 1001.6 3.0 N 6.7 N 0.0 415.3 0.1
04:00 7.1 92.2 1001.7 3.8 N 6.4 N 0.0 419.2 0.1
04:05 7.0 92.2 1001.7 2.8 N 4.9 N 0.0 423.7 0.1
04:10 7.0 92.5 1001.8 2.6 N 4.6 NNW 0.1 427.1 0.1
04:15 6.9 92.7 1001.8 2.8 N 5.3 NNW 0.0 429.4 0.2
04:20 6.9 92.8 1001.8 4.3 NNW 7.4 NNW 0.0 430.2 0.1
04:25 6.9 92.9 1001.8 0.3 NW 2.5 WSW 0.0 432.9 0.1
04:30 6.9 93.0 1001.7 1.2 E 3.5 ESE 0.0 445.3 0.1
04:35 6.9 93.2 1001.8 0.5 E 2.5 NE 0.1 453.6 0.1
04:40 6.8 93.4 1001.9 0.6 NE 3.2 WSW 0.0 457.6 0.1
04:45 6.8 93.6 1001.9 1.3 S 5.6 SSW 0.0 458.6 0.1
04:50 6.8 93.9 1002.0 2.5 NE 8.8 NNW 0.0 458.0 0.1
04:55 6.8 94.0 1001.9 3.3 NNE 9.2 NNE 0.0 458.7 0.1
05:00 6.8 94.2 1001.9 2.6 N 9.9 NNE 0.0 458.2 0.1
05:05 6.8 94.4 1001.9 3.6 N 7.8 NNW 0.0 458.8 0.1
05:10 6.8 94.5 1001.9 1.1 N 4.9 WNW 0.0 458.3 0.1
05:15 6.8 94.6 1001.9 2.3 WNW 6.4 W 0.0 457.6 0.1
05:20 6.8 94.7 1002.0 1.7 WSW 7.8 SSW 0.0 457.1 0.1
05:25 6.8 94.9 1002.0 0.7 ESE 3.2 S 0.0 456.6 0.1
05:30 6.8 94.9 1002.0 2.2 WSW 6.4 W 0.0 456.1 0.1
05:35 6.8 94.9 1002.1 3.4 WNW 9.2 W 0.0 455.5 0.1
05:40 6.8 95.0 1002.1 2.1 WSW 6.7 W 0.0 454.8 0.1
05:45 6.7 95.0 1002.2 3.5 NNW 10.2 WNW 0.0 454.3 0.1
05:50 6.7 95.1 1002.3 5.1 WNW 14.8 WNW 0.0 453.9 0.1
05:55 6.6 95.1 1002.2 2.6 NW 8.5 W 0.0 453.5 0.1
06:00 6.6 95.2 1002.2 3.6 NW 13.1 NNE 0.0 453.1 0.1
06:05 6.6 95.3 1002.3 2.6 SW 6.4 ESE 0.0 452.7 0.1
06:10 6.6 95.4 1002.4 2.8 WNW 9.2 W 0.0 452.4 0.1
06:15 6.6 95.5 1002.4 3.6 NNW 13.8 WNW 0.0 452.2 0.1
06:20 6.6 95.5 1002.6 3.7 WNW 15.2 WNW 0.0 452.1 0.1
06:25 6.6 95.6 1002.7 4.3 WNW 14.1 WNW 0.0 452.0 0.1
06:30 6.6 95.6 1002.7 3.4 WNW 10.2 SW 0.0 451.8 0.1
06:35 6.5 95.6 1002.7 4.8 WNW 15.2 W 0.1 451.6 0.1
06:40 6.5 95.6 1002.8 6.0 NW 14.1 WNW 0.0 451.3 0.1
06:45 6.5 95.7 1002.8 4.4 W 12.0 W 0.0 451.1 0.1
06:50 6.5 95.7 1002.8 4.6 WNW 13.4 W 0.0 450.9 0.1
06:55 6.5 95.8 1002.8 2.5 E 7.1 NW 0.0 450.8 0.2
07:00 6.5 95.8 1002.9 4.9 NW 11.6 WSW 0.0 450.7 0.2
07:05 6.5 95.8 1002.9 4.3 W 11.3 W 0.0 450.5 0.5
07:10 6.5 95.9 1002.9 3.3 NW 14.5 W 0.0 450.4 0.6
07:15 6.5 95.9 1002.9 2.5 SSE 8.5 W 0.0 450.5 0.9
07:20 6.5 96.0 1003.0 3.0 NNE 11.3 W 0.0 450.9 1.1
07:25 6.5 96.0 1003.0 3.5 ESE 13.8 WSW 0.0 451.6 1.7
07:30 6.5 96.0 1003.0 3.5 NNW 12.4 NNE 0.0 451.9 3.2
07:35 6.5 96.0 1003.0 5.0 N 14.8 NNE 0.0 453.1 4.7
07:40 6.4 96.0 1003.1 3.1 SSE 7.8 WSW 0.0 453.6 10.8
07:45 6.5 96.1 1003.1 2.4 ENE 6.7 NNE 0.0 453.4 12.9
07:50 6.5 96.2 1003.2 3.5 NE 10.9 N 0.0 453.3 11.7
07:55 6.5 96.1 1003.3 5.1 NW 12.7 NW 0.0 453.1 11.6
08:00 6.5 96.1 1003.3 3.6 N 18.0 N 0.0 452.9 10.1
08:05 6.4 96.1 1003.3 5.7 W 14.5 W 0.0 452.7 13.0
08:10 6.3 96.1 1003.4 6.8 WNW 15.5 NW 0.0 452.3 13.1
08:15 6.3 96.2 1003.5 2.6 ESE 8.8 NNE 0.0 452.1 11.9
08:20 6.4 96.2 1003.6 5.1 WNW 13.4 N 0.0 451.9 13.1
08:25 6.3 96.2 1003.8 5.7 WNW 11.3 SW 0.0 451.6 12.9
08:30 6.3 96.2 1003.8 8.0 W 18.0 WNW 0.0 451.3 12.2
08:35 6.3 96.2 1003.8 5.6 WNW 18.4 WNW 0.0 450.8 8.2
08:40 6.3 96.3 1003.9 4.1 NW 15.5 W 0.0 450.6 13.1
08:45 6.3 96.3 1003.9 8.4 WNW 18.4 WNW 0.0 450.4 29.1
08:50 6.3 96.3 1004.0 3.8 W 10.9 W 0.0 450.2 13.6
Màxima 7.3 96.3 1004.0 8.4 WNW 18.4 WNW 0.1 458.8 29.1
Mínima 6.2 92.2 1000.9 414.5
Total 0.4